Palau International Airport

PTRO · Airai, 帕劳

METAR PTRO · Palau International Airport

30 五月 05:50 LT
36m
罗盘
风向 的 风向 060°
风: 9 kt, 3 beaufort

添加一条跑道以查看侧风和逆风信息。

添置 跑道
0 ft 6.000 12.000 18.000 24.000 30.000
Cloud Cloud Cloud Cloud Cloud Cloud
BKN 1.500
Cloud Cloud Cloud Cloud Cloud Cloud
BKN 11.000
Cloud Cloud Cloud Cloud Cloud Cloud Cloud Cloud
OVC 30.000
METAR PTRO 292050Z 06009KT 10SM -SHRA BKN015CB BKN110 OVC300 26/25 A2985 RMK CB NE-SE-S AND OHD MOV NW

METAR Palau International Airport - PTRO/ROR

Palau International Airport是,帕劳中的中型机场。 该机场位于纬度7,36731和经度134,54425。 本场的ICAO机场代码为PTRO。 该机场的本地机场标识(FAA LID)为ROR。 该机场的IATA代码为ROR。 机场在Oakland Oceanic West FIR中。

该航空气象观测是针对Palau International Airport在2024年5月30日 05:50, 当地时间进行的。

机场观察

风向为060°,速度为9 kt。

可见度为16 km。

有碎云 积雨云在1.500 ft的高度, 碎云在11.000 ft的高度 和 乌云密布在30.000 ft的高度。 破损或更高的上限为1.500 ft。

当前天气为光 阵雨 雨。 温度和风寒是26 °C。 露点为25 °C,相对湿度为94%。 海平面上的气压为1011 hPa (QNH)。

白天

今天,太阳从05:43升起,在18:14降落。 这适用于Palau International Airport,世界夏令时可能有所不同。 当地时间与世界标准时间之间的时差为+9 小时。 夏令时目前正在进行中。

公司介绍

我们没有关于这个机场的公司信息。

体会

到Vliegles.nl去找飞行课程,跳伞和其他飞行体验。 浏览页面,了解Palau International Airport附近所有可用的活动。 你也可以使用搜索功能来寻找你所在地附近的特定飞行课程、跳伞或其他飞行体验。

乌云

1.500 ft BKN 碎云 积雨云
11.000 ft BKN 碎云
30.000 ft OVC 乌云密布

温度 & 天气

天气 光 阵雨 雨
温度 26 °C
露点 25 °C
相对湿度 94%
Kp-index 0 (0-9)

评论

CB NE-SE-S AND OHD MOV NW

白天

日出
05:43
中午
11:59
日落
18:14

小工具

你想在你的网站上有一个关于Palau International Airport的当前航空天气(METAR)的小部件吗?

显示HTML代码
报告变更